sensor_id;sensor_type;location;lat;lon;timestamp;pressure;altitude;pressure_sealevel;temperature;humidity
81319;BME280;70784;48.420;14.830;2023-06-26T00:00:34;92873.22;;;14.75;67.85
81319;BME280;70784;48.420;14.830;2023-06-26T00:03:18;92878.13;;;14.77;67.32
81319;BME280;70784;48.420;14.830;2023-06-26T00:06:03;92885.66;;;14.53;68.66
81319;BME280;70784;48.420;14.830;2023-06-26T00:08:47;92882.97;;;14.18;70.07
81319;BME280;70784;48.420;14.830;2023-06-26T00:11:32;92881.31;;;14.39;69.65
81319;BME280;70784;48.420;14.830;2023-06-26T00:14:18;92879.72;;;14.04;71.10
81319;BME280;70784;48.420;14.830;2023-06-26T00:17:04;92871.19;;;13.90;71.30
81319;BME280;70784;48.420;14.830;2023-06-26T00:19:50;92876.94;;;14.09;70.79
81319;BME280;70784;48.420;14.830;2023-06-26T00:22:34;92867.72;;;14.03;71.06
81319;BME280;70784;48.420;14.830;2023-06-26T00:25:19;92880.47;;;14.04;70.96
81319;BME280;70784;48.420;14.830;2023-06-26T00:28:04;92872.59;;;14.44;69.20
81319;BME280;70784;48.420;14.830;2023-06-26T00:30:48;92868.50;;;14.12;70.56
81319;BME280;70784;48.420;14.830;2023-06-26T00:33:32;92870.44;;;13.89;71.34
81319;BME280;70784;48.420;14.830;2023-06-26T00:36:17;92874.34;;;14.18;70.43
81319;BME280;70784;48.420;14.830;2023-06-26T00:39:02;92869.81;;;13.44;73.29
81319;BME280;70784;48.420;14.830;2023-06-26T00:41:47;92876.72;;;13.80;72.17
81319;BME280;70784;48.420;14.830;2023-06-26T00:44:32;92863.78;;;13.35;73.58
81319;BME280;70784;48.420;14.830;2023-06-26T00:47:17;92863.91;;;13.30;74.04
81319;BME280;70784;48.420;14.830;2023-06-26T00:50:02;92866.81;;;13.59;73.41
81319;BME280;70784;48.420;14.830;2023-06-26T00:52:47;92861.59;;;13.59;73.56
81319;BME280;70784;48.420;14.830;2023-06-26T00:55:31;92870.34;;;14.03;71.22
81319;BME280;70784;48.420;14.830;2023-06-26T00:58:16;92859.66;;;14.30;70.08
81319;BME280;70784;48.420;14.830;2023-06-26T01:01:00;92864.78;;;13.96;71.38
81319;BME280;70784;48.420;14.830;2023-06-26T01:03:48;92859.69;;;13.91;71.89
81319;BME280;70784;48.420;14.830;2023-06-26T01:06:37;92862.66;;;14.06;71.29
81319;BME280;70784;48.420;14.830;2023-06-26T01:09:22;92855.44;;;14.03;71.06
81319;BME280;70784;48.420;14.830;2023-06-26T01:12:06;92861.16;;;14.31;70.05
81319;BME280;70784;48.420;14.830;2023-06-26T01:14:51;92855.06;;;13.79;72.47
81319;BME280;70784;48.420;14.830;2023-06-26T01:17:37;92857.75;;;14.05;70.93
81319;BME280;70784;48.420;14.830;2023-06-26T01:20:22;92855.00;;;14.19;70.68
81319;BME280;70784;48.420;14.830;2023-06-26T01:23:24;92861.97;;;13.84;72.11
81319;BME280;70784;48.420;14.830;2023-06-26T01:26:21;92855.88;;;13.88;71.56
81319;BME280;70784;48.420;14.830;2023-06-26T01:29:07;92857.09;;;13.91;71.81
81319;BME280;70784;48.420;14.830;2023-06-26T01:31:54;92850.25;;;14.12;71.37
81319;BME280;70784;48.420;14.830;2023-06-26T01:34:39;92854.91;;;14.58;69.33
81319;BME280;70784;48.420;14.830;2023-06-26T01:37:24;92851.94;;;14.34;69.92
81319;BME280;70784;48.420;14.830;2023-06-26T01:40:09;92836.75;;;14.36;69.77
81319;BME280;70784;48.420;14.830;2023-06-26T01:42:55;92837.56;;;14.45;69.67
81319;BME280;70784;48.420;14.830;2023-06-26T01:45:41;92835.41;;;14.47;69.61
81319;BME280;70784;48.420;14.830;2023-06-26T01:48:34;92836.78;;;14.53;70.01
81319;BME280;70784;48.420;14.830;2023-06-26T01:51:27;92833.41;;;14.44;70.87
81319;BME280;70784;48.420;14.830;2023-06-26T01:54:18;92826.03;;;14.46;69.68
81319;BME280;70784;48.420;14.830;2023-06-26T01:57:05;92825.06;;;14.33;70.38
81319;BME280;70784;48.420;14.830;2023-06-26T01:59:54;92831.34;;;14.24;70.75
81319;BME280;70784;48.420;14.830;2023-06-26T02:02:43;92828.31;;;14.30;71.10
81319;BME280;70784;48.420;14.830;2023-06-26T02:05:31;92829.16;;;14.00;72.04
81319;BME280;70784;48.420;14.830;2023-06-26T02:08:16;92826.72;;;14.03;72.62
81319;BME280;70784;48.420;14.830;2023-06-26T02:11:02;92819.47;;;13.92;72.69
81319;BME280;70784;48.420;14.830;2023-06-26T02:13:49;92817.44;;;13.72;73.50
81319;BME280;70784;48.420;14.830;2023-06-26T02:16:36;92816.56;;;13.93;72.73
81319;BME280;70784;48.420;14.830;2023-06-26T02:19:22;92815.69;;;13.58;74.01
81319;BME280;70784;48.420;14.830;2023-06-26T02:22:11;92817.56;;;13.27;75.68
81319;BME280;70784;48.420;14.830;2023-06-26T02:24:58;92821.09;;;13.31;76.09
81319;BME280;70784;48.420;14.830;2023-06-26T02:27:45;92824.44;;;13.23;76.51
81319;BME280;70784;48.420;14.830;2023-06-26T02:30:32;92827.59;;;13.11;76.21
81319;BME280;70784;48.420;14.830;2023-06-26T02:33:22;92824.84;;;13.39;75.58
81319;BME280;70784;48.420;14.830;2023-06-26T02:36:08;92821.72;;;13.28;75.59
81319;BME280;70784;48.420;14.830;2023-06-26T02:38:55;92820.34;;;13.08;77.10
81319;BME280;70784;48.420;14.830;2023-06-26T02:41:42;92825.44;;;13.36;75.44
81319;BME280;70784;48.420;14.830;2023-06-26T02:44:30;92824.59;;;13.57;74.54
81319;BME280;70784;48.420;14.830;2023-06-26T02:47:17;92824.47;;;13.62;74.56
81319;BME280;70784;48.420;14.830;2023-06-26T02:50:07;92828.88;;;13.00;77.45
81319;BME280;70784;48.420;14.830;2023-06-26T02:52:54;92830.50;;;12.87;77.93
81319;BME280;70784;48.420;14.830;2023-06-26T02:55:41;92826.47;;;13.26;75.88
81319;BME280;70784;48.420;14.830;2023-06-26T02:58:27;92833.16;;;13.18;76.69
81319;BME280;70784;48.420;14.830;2023-06-26T03:01:14;92827.53;;;13.03;77.21
81319;BME280;70784;48.420;14.830;2023-06-26T03:04:01;92826.59;;;13.21;77.05
81319;BME280;70784;48.420;14.830;2023-06-26T03:06:47;92835.56;;;13.37;75.87
81319;BME280;70784;48.420;14.830;2023-06-26T03:09:35;92830.38;;;13.15;76.53
81319;BME280;70784;48.420;14.830;2023-06-26T03:12:21;92832.88;;;13.20;76.65
81319;BME280;70784;48.420;14.830;2023-06-26T03:15:08;92829.22;;;13.07;76.82
81319;BME280;70784;48.420;14.830;2023-06-26T03:17:57;92831.22;;;13.02;76.90
81319;BME280;70784;48.420;14.830;2023-06-26T03:20:43;92828.91;;;13.31;76.72
81319;BME280;70784;48.420;14.830;2023-06-26T03:23:30;92831.75;;;13.43;75.93
81319;BME280;70784;48.420;14.830;2023-06-26T03:26:17;92828.19;;;13.39;76.09
81319;BME280;70784;48.420;14.830;2023-06-26T03:29:04;92828.47;;;13.68;74.40
81319;BME280;70784;48.420;14.830;2023-06-26T03:31:50;92838.63;;;13.79;74.56
81319;BME280;70784;48.420;14.830;2023-06-26T03:34:36;92831.13;;;13.86;74.16
81319;BME280;70784;48.420;14.830;2023-06-26T03:37:33;92832.97;;;13.85;74.51
81319;BME280;70784;48.420;14.830;2023-06-26T03:40:19;92827.72;;;13.77;75.87
81319;BME280;70784;48.420;14.830;2023-06-26T03:43:05;92835.09;;;13.75;75.78
81319;BME280;70784;48.420;14.830;2023-06-26T03:45:52;92827.63;;;13.99;75.08
81319;BME280;70784;48.420;14.830;2023-06-26T03:48:38;92838.41;;;14.23;74.32
81319;BME280;70784;48.420;14.830;2023-06-26T03:51:25;92827.69;;;14.33;74.21
81319;BME280;70784;48.420;14.830;2023-06-26T03:54:12;92828.03;;;14.58;73.13
81319;BME280;70784;48.420;14.830;2023-06-26T03:56:58;92829.72;;;14.62;73.62
81319;BME280;70784;48.420;14.830;2023-06-26T03:59:45;92830.03;;;14.61;74.88
81319;BME280;70784;48.420;14.830;2023-06-26T04:02:32;92829.72;;;14.88;72.85
81319;BME280;70784;48.420;14.830;2023-06-26T04:05:20;92835.19;;;15.21;71.54
81319;BME280;70784;48.420;14.830;2023-06-26T04:08:06;92833.28;;;15.39;69.78
81319;BME280;70784;48.420;14.830;2023-06-26T04:10:53;92830.00;;;15.59;69.68
81319;BME280;70784;48.420;14.830;2023-06-26T04:13:40;92838.88;;;15.75;68.98
81319;BME280;70784;48.420;14.830;2023-06-26T04:16:28;92833.59;;;15.84;70.00
81319;BME280;70784;48.420;14.830;2023-06-26T04:19:15;92829.75;;;16.11;67.01
81319;BME280;70784;48.420;14.830;2023-06-26T04:22:04;92832.91;;;16.25;66.16
81319;BME280;70784;48.420;14.830;2023-06-26T04:24:51;92830.06;;;16.39;64.66
81319;BME280;70784;48.420;14.830;2023-06-26T04:27:38;92828.97;;;16.40;66.36
81319;BME280;70784;48.420;14.830;2023-06-26T04:30:25;92833.94;;;16.53;65.45
81319;BME280;70784;48.420;14.830;2023-06-26T04:33:11;92835.03;;;16.52;66.88
81319;BME280;70784;48.420;14.830;2023-06-26T04:35:58;92821.91;;;16.61;67.05
81319;BME280;70784;48.420;14.830;2023-06-26T04:38:49;92836.72;;;16.78;64.21
81319;BME280;70784;48.420;14.830;2023-06-26T04:41:36;92831.84;;;16.88;62.56
81319;BME280;70784;48.420;14.830;2023-06-26T04:44:23;92833.56;;;17.05;61.50
81319;BME280;70784;48.420;14.830;2023-06-26T04:47:09;92832.56;;;17.10;61.49
81319;BME280;70784;48.420;14.830;2023-06-26T04:49:56;92835.13;;;17.18;62.83
81319;BME280;70784;48.420;14.830;2023-06-26T04:52:43;92841.69;;;17.24;60.65
81319;BME280;70784;48.420;14.830;2023-06-26T04:55:33;92833.41;;;17.34;62.25
81319;BME280;70784;48.420;14.830;2023-06-26T04:58:23;92843.50;;;17.44;61.81
81319;BME280;70784;48.420;14.830;2023-06-26T05:01:09;92843.41;;;17.53;61.60
81319;BME280;70784;48.420;14.830;2023-06-26T05:03:59;92840.38;;;17.63;59.35
81319;BME280;70784;48.420;14.830;2023-06-26T05:06:45;92843.78;;;17.76;62.25
81319;BME280;70784;48.420;14.830;2023-06-26T05:09:32;92843.22;;;17.82;60.34
81319;BME280;70784;48.420;14.830;2023-06-26T05:12:18;92851.13;;;17.95;59.87
81319;BME280;70784;48.420;14.830;2023-06-26T05:15:05;92849.28;;;17.95;61.24
81319;BME280;70784;48.420;14.830;2023-06-26T05:17:52;92848.19;;;17.96;59.51
81319;BME280;70784;48.420;14.830;2023-06-26T05:20:39;92840.97;;;18.05;60.52
81319;BME280;70784;48.420;14.830;2023-06-26T05:23:26;92840.53;;;18.15;61.37
81319;BME280;70784;48.420;14.830;2023-06-26T05:26:13;92845.78;;;18.15;61.01
81319;BME280;70784;48.420;14.830;2023-06-26T05:29:00;92841.38;;;18.32;61.04
81319;BME280;70784;48.420;14.830;2023-06-26T05:31:47;92843.66;;;18.33;59.25
81319;BME280;70784;48.420;14.830;2023-06-26T05:34:35;92843.78;;;18.37;60.45
81319;BME280;70784;48.420;14.830;2023-06-26T05:37:23;92845.06;;;18.43;59.57
81319;BME280;70784;48.420;14.830;2023-06-26T05:40:12;92850.53;;;18.50;58.73
81319;BME280;70784;48.420;14.830;2023-06-26T05:43:00;92853.28;;;18.53;60.54
81319;BME280;70784;48.420;14.830;2023-06-26T05:45:47;92850.09;;;18.72;58.62
81319;BME280;70784;48.420;14.830;2023-06-26T05:48:34;92847.84;;;18.86;58.03
81319;BME280;70784;48.420;14.830;2023-06-26T05:51:21;92850.72;;;18.81;59.39
81319;BME280;70784;48.420;14.830;2023-06-26T05:54:08;92844.34;;;19.10;60.10
81319;BME280;70784;48.420;14.830;2023-06-26T05:56:57;92847.59;;;18.91;64.21
81319;BME280;70784;48.420;14.830;2023-06-26T05:59:47;92846.72;;;19.00;59.91
81319;BME280;70784;48.420;14.830;2023-06-26T06:02:34;92848.22;;;19.01;58.01
81319;BME280;70784;48.420;14.830;2023-06-26T06:05:22;92846.75;;;19.15;58.56
81319;BME280;70784;48.420;14.830;2023-06-26T06:08:09;92851.19;;;19.27;58.00
81319;BME280;70784;48.420;14.830;2023-06-26T06:10:59;92847.34;;;19.52;61.43
81319;BME280;70784;48.420;14.830;2023-06-26T06:13:46;92840.31;;;19.56;58.08
81319;BME280;70784;48.420;14.830;2023-06-26T06:16:32;92849.66;;;19.69;56.40
81319;BME280;70784;48.420;14.830;2023-06-26T06:19:16;92846.19;;;19.65;56.55
81319;BME280;70784;48.420;14.830;2023-06-26T06:22:01;92848.81;;;19.97;54.91
81319;BME280;70784;48.420;14.830;2023-06-26T06:24:45;92852.47;;;20.08;54.75
81319;BME280;70784;48.420;14.830;2023-06-26T06:27:30;92850.41;;;20.49;55.89
81319;BME280;70784;48.420;14.830;2023-06-26T06:30:15;92859.34;;;20.28;56.00
81319;BME280;70784;48.420;14.830;2023-06-26T06:33:00;92852.81;;;19.91;57.33
81319;BME280;70784;48.420;14.830;2023-06-26T06:35:45;92855.50;;;19.47;57.83
81319;BME280;70784;48.420;14.830;2023-06-26T06:38:29;92853.06;;;20.01;57.82
81319;BME280;70784;48.420;14.830;2023-06-26T06:41:14;92849.44;;;19.90;59.21
81319;BME280;70784;48.420;14.830;2023-06-26T06:43:59;92852.88;;;20.26;57.24
81319;BME280;70784;48.420;14.830;2023-06-26T06:46:44;92855.78;;;20.21;55.93
81319;BME280;70784;48.420;14.830;2023-06-26T06:49:28;92850.09;;;20.03;55.26
81319;BME280;70784;48.420;14.830;2023-06-26T06:52:12;92857.22;;;19.87;59.05
81319;BME280;70784;48.420;14.830;2023-06-26T06:54:57;92860.22;;;20.17;56.48
81319;BME280;70784;48.420;14.830;2023-06-26T06:57:49;92864.75;;;20.67;55.56
81319;BME280;70784;48.420;14.830;2023-06-26T07:00:34;92859.59;;;20.74;54.23
81319;BME280;70784;48.420;14.830;2023-06-26T07:03:18;92854.75;;;20.09;55.78
81319;BME280;70784;48.420;14.830;2023-06-26T07:06:03;92856.53;;;20.21;55.91
81319;BME280;70784;48.420;14.830;2023-06-26T07:08:48;92855.44;;;20.22;57.04
81319;BME280;70784;48.420;14.830;2023-06-26T07:11:32;92865.47;;;20.48;56.96
81319;BME280;70784;48.420;14.830;2023-06-26T07:14:16;92857.16;;;20.65;53.89
81319;BME280;70784;48.420;14.830;2023-06-26T07:17:01;92850.59;;;20.75;55.22
81319;BME280;70784;48.420;14.830;2023-06-26T07:19:45;92848.91;;;20.67;54.03
81319;BME280;70784;48.420;14.830;2023-06-26T07:22:30;92847.09;;;21.09;55.59
81319;BME280;70784;48.420;14.830;2023-06-26T07:25:15;92847.03;;;21.06;55.76
81319;BME280;70784;48.420;14.830;2023-06-26T07:27:59;92848.28;;;21.12;56.58
81319;BME280;70784;48.420;14.830;2023-06-26T07:30:44;92850.97;;;20.77;56.52
81319;BME280;70784;48.420;14.830;2023-06-26T07:33:28;92840.38;;;21.12;56.02
81319;BME280;70784;48.420;14.830;2023-06-26T07:36:13;92844.41;;;20.87;56.81
81319;BME280;70784;48.420;14.830;2023-06-26T07:38:57;92841.28;;;21.19;57.65
81319;BME280;70784;48.420;14.830;2023-06-26T07:41:42;92843.28;;;21.26;57.06
81319;BME280;70784;48.420;14.830;2023-06-26T07:44:26;92853.56;;;21.50;55.87
81319;BME280;70784;48.420;14.830;2023-06-26T07:47:11;92846.38;;;21.51;55.31
81319;BME280;70784;48.420;14.830;2023-06-26T07:49:56;92845.22;;;21.10;56.27
81319;BME280;70784;48.420;14.830;2023-06-26T07:52:41;92847.31;;;21.58;55.69
81319;BME280;70784;48.420;14.830;2023-06-26T07:55:25;92844.69;;;21.39;54.47
81319;BME280;70784;48.420;14.830;2023-06-26T07:58:11;92851.47;;;21.82;54.48
81319;BME280;70784;48.420;14.830;2023-06-26T08:00:55;92847.59;;;21.34;54.23
81319;BME280;70784;48.420;14.830;2023-06-26T08:03:40;92853.25;;;21.75;53.40
81319;BME280;70784;48.420;14.830;2023-06-26T08:06:24;92851.59;;;22.12;53.39
81319;BME280;70784;48.420;14.830;2023-06-26T08:09:09;92859.16;;;21.68;53.08
81319;BME280;70784;48.420;14.830;2023-06-26T08:11:54;92851.50;;;21.86;53.94
81319;BME280;70784;48.420;14.830;2023-06-26T08:14:39;92851.81;;;21.81;53.09
81319;BME280;70784;48.420;14.830;2023-06-26T08:17:23;92857.88;;;21.58;52.86
81319;BME280;70784;48.420;14.830;2023-06-26T08:20:08;92854.19;;;22.61;52.39
81319;BME280;70784;48.420;14.830;2023-06-26T08:22:53;92861.78;;;21.68;52.00
81319;BME280;70784;48.420;14.830;2023-06-26T08:25:38;92853.31;;;22.50;51.07
81319;BME280;70784;48.420;14.830;2023-06-26T08:28:23;92848.09;;;22.31;50.90
81319;BME280;70784;48.420;14.830;2023-06-26T08:31:07;92852.56;;;22.80;50.68
81319;BME280;70784;48.420;14.830;2023-06-26T08:33:52;92843.25;;;22.63;51.00
81319;BME280;70784;48.420;14.830;2023-06-26T08:36:36;92852.56;;;22.53;52.46
81319;BME280;70784;48.420;14.830;2023-06-26T08:39:21;92849.81;;;23.32;50.56
81319;BME280;70784;48.420;14.830;2023-06-26T08:42:05;92848.00;;;23.40;48.20
81319;BME280;70784;48.420;14.830;2023-06-26T08:44:50;92850.38;;;23.89;50.18
81319;BME280;70784;48.420;14.830;2023-06-26T08:47:37;92847.16;;;23.32;48.22
81319;BME280;70784;48.420;14.830;2023-06-26T08:50:23;92849.56;;;23.11;48.94
81319;BME280;70784;48.420;14.830;2023-06-26T08:53:09;92845.28;;;23.33;47.37
81319;BME280;70784;48.420;14.830;2023-06-26T08:55:59;92842.34;;;22.52;49.53
81319;BME280;70784;48.420;14.830;2023-06-26T08:58:45;92846.56;;;22.30;50.31
81319;BME280;70784;48.420;14.830;2023-06-26T09:01:31;92837.88;;;22.82;49.16
81319;BME280;70784;48.420;14.830;2023-06-26T09:04:16;92842.06;;;22.87;49.03
81319;BME280;70784;48.420;14.830;2023-06-26T09:07:00;92841.09;;;23.65;47.53
81319;BME280;70784;48.420;14.830;2023-06-26T09:09:46;92843.88;;;23.42;47.71
81319;BME280;70784;48.420;14.830;2023-06-26T09:12:31;92854.06;;;23.07;45.98
81319;BME280;70784;48.420;14.830;2023-06-26T09:15:19;92845.31;;;23.73;46.96
81319;BME280;70784;48.420;14.830;2023-06-26T09:18:04;92848.41;;;23.45;47.13
81319;BME280;70784;48.420;14.830;2023-06-26T09:20:50;92850.31;;;23.12;46.38
81319;BME280;70784;48.420;14.830;2023-06-26T09:23:35;92851.69;;;22.98;46.70
81319;BME280;70784;48.420;14.830;2023-06-26T09:26:21;92848.69;;;23.00;48.19
81319;BME280;70784;48.420;14.830;2023-06-26T09:29:07;92843.91;;;24.31;44.44
81319;BME280;70784;48.420;14.830;2023-06-26T09:31:51;92840.97;;;23.55;47.65
81319;BME280;70784;48.420;14.830;2023-06-26T09:34:36;92845.97;;;24.55;47.49
81319;BME280;70784;48.420;14.830;2023-06-26T09:37:21;92835.97;;;24.92;47.67
81319;BME280;70784;48.420;14.830;2023-06-26T09:40:07;92833.00;;;23.92;47.29
81319;BME280;70784;48.420;14.830;2023-06-26T09:42:52;92835.34;;;24.00;49.25
81319;BME280;70784;48.420;14.830;2023-06-26T09:45:39;92831.84;;;23.52;45.55
81319;BME280;70784;48.420;14.830;2023-06-26T09:48:24;92826.00;;;23.02;46.54
81319;BME280;70784;48.420;14.830;2023-06-26T09:51:09;92825.22;;;23.02;48.35
81319;BME280;70784;48.420;14.830;2023-06-26T09:53:54;92828.72;;;22.76;48.13
81319;BME280;70784;48.420;14.830;2023-06-26T09:56:38;92829.50;;;22.80;50.04
81319;BME280;70784;48.420;14.830;2023-06-26T09:59:23;92829.88;;;23.12;49.85
81319;BME280;70784;48.420;14.830;2023-06-26T10:02:07;92828.50;;;23.22;49.14
81319;BME280;70784;48.420;14.830;2023-06-26T10:04:52;92832.63;;;22.59;50.07
81319;BME280;70784;48.420;14.830;2023-06-26T10:07:37;92832.03;;;22.17;49.86
81319;BME280;70784;48.420;14.830;2023-06-26T10:10:23;92835.28;;;23.93;47.95
81319;BME280;70784;48.420;14.830;2023-06-26T10:13:15;92828.25;;;25.60;45.27
81319;BME280;70784;48.420;14.830;2023-06-26T10:16:01;92826.13;;;25.04;45.37
81319;BME280;70784;48.420;14.830;2023-06-26T10:18:46;92833.19;;;24.78;45.38
81319;BME280;70784;48.420;14.830;2023-06-26T10:21:31;92820.28;;;26.13;40.66
81319;BME280;70784;48.420;14.830;2023-06-26T10:24:20;92821.94;;;24.30;44.53
81319;BME280;70784;48.420;14.830;2023-06-26T10:27:14;92814.16;;;24.07;46.08
81319;BME280;70784;48.420;14.830;2023-06-26T10:30:02;92819.38;;;23.93;48.19
81319;BME280;70784;48.420;14.830;2023-06-26T10:32:48;92816.53;;;23.35;48.73
81319;BME280;70784;48.420;14.830;2023-06-26T10:35:33;92816.41;;;24.02;46.84
81319;BME280;70784;48.420;14.830;2023-06-26T10:38:17;92812.59;;;24.54;47.13
81319;BME280;70784;48.420;14.830;2023-06-26T10:41:10;92816.09;;;24.69;47.49
81319;BME280;70784;48.420;14.830;2023-06-26T10:46:49;92807.22;;;24.40;47.43
81319;BME280;70784;48.420;14.830;2023-06-26T10:49:36;92811.75;;;24.39;45.13
81319;BME280;70784;48.420;14.830;2023-06-26T10:52:21;92811.84;;;25.40;43.74
81319;BME280;70784;48.420;14.830;2023-06-26T10:55:08;92806.38;;;24.98;42.51
81319;BME280;70784;48.420;14.830;2023-06-26T10:57:54;92803.16;;;24.60;42.62
81319;BME280;70784;48.420;14.830;2023-06-26T11:00:49;92797.44;;;24.03;42.78
81319;BME280;70784;48.420;14.830;2023-06-26T11:03:36;92797.41;;;23.96;46.79
81319;BME280;70784;48.420;14.830;2023-06-26T11:06:21;92796.53;;;23.81;46.12
81319;BME280;70784;48.420;14.830;2023-06-26T11:09:11;92799.53;;;24.28;45.14
81319;BME280;70784;48.420;14.830;2023-06-26T11:11:56;92800.25;;;24.21;44.94
81319;BME280;70784;48.420;14.830;2023-06-26T11:14:45;92800.31;;;24.93;43.42
81319;BME280;70784;48.420;14.830;2023-06-26T11:17:30;92803.06;;;24.46;42.49
81319;BME280;70784;48.420;14.830;2023-06-26T11:20:15;92790.94;;;26.70;38.95
81319;BME280;70784;48.420;14.830;2023-06-26T11:23:00;92786.22;;;29.39;34.68
81319;BME280;70784;48.420;14.830;2023-06-26T11:25:45;92780.38;;;29.75;36.94
81319;BME280;70784;48.420;14.830;2023-06-26T11:28:30;92785.34;;;28.03;39.18
81319;BME280;70784;48.420;14.830;2023-06-26T11:31:29;92775.41;;;26.36;41.23
81319;BME280;70784;48.420;14.830;2023-06-26T11:34:16;92780.00;;;25.79;43.85
81319;BME280;70784;48.420;14.830;2023-06-26T11:37:02;92778.63;;;24.88;42.50
81319;BME280;70784;48.420;14.830;2023-06-26T11:39:47;92778.00;;;25.16;41.96
81319;BME280;70784;48.420;14.830;2023-06-26T11:42:31;92771.97;;;25.47;43.46
81319;BME280;70784;48.420;14.830;2023-06-26T11:45:19;92787.28;;;24.74;41.24
81319;BME280;70784;48.420;14.830;2023-06-26T11:48:04;92776.47;;;25.22;42.54
81319;BME280;70784;48.420;14.830;2023-06-26T11:50:50;92778.88;;;26.05;41.44
81319;BME280;70784;48.420;14.830;2023-06-26T11:53:42;92775.41;;;25.58;39.13
81319;BME280;70784;48.420;14.830;2023-06-26T11:56:27;92782.88;;;25.00;42.26
81319;BME280;70784;48.420;14.830;2023-06-26T11:59:12;92778.88;;;24.62;42.53
81319;BME280;70784;48.420;14.830;2023-06-26T12:01:57;92781.94;;;24.60;43.54
81319;BME280;70784;48.420;14.830;2023-06-26T12:04:43;92781.25;;;24.81;41.54
81319;BME280;70784;48.420;14.830;2023-06-26T12:07:28;92784.53;;;26.46;39.12
81319;BME280;70784;48.420;14.830;2023-06-26T12:10:14;92780.44;;;27.36;39.65
81319;BME280;70784;48.420;14.830;2023-06-26T12:13:00;92776.06;;;29.27;32.56
81319;BME280;70784;48.420;14.830;2023-06-26T12:15:45;92782.66;;;29.76;31.44
81319;BME280;70784;48.420;14.830;2023-06-26T12:18:34;92775.63;;;27.75;35.44
81319;BME280;70784;48.420;14.830;2023-06-26T12:24:23;92777.72;;;26.34;40.63
81319;BME280;70784;48.420;14.830;2023-06-26T12:27:09;92784.56;;;25.72;41.58
81319;BME280;70784;48.420;14.830;2023-06-26T12:29:55;92769.00;;;25.59;38.80
81319;BME280;70784;48.420;14.830;2023-06-26T12:32:39;92774.44;;;28.69;34.80
81319;BME280;70784;48.420;14.830;2023-06-26T12:35:24;92771.63;;;28.01;35.57
81319;BME280;70784;48.420;14.830;2023-06-26T12:38:09;92776.22;;;27.97;33.73
81319;BME280;70784;48.420;14.830;2023-06-26T12:40:56;92765.69;;;28.27;33.01
81319;BME280;70784;48.420;14.830;2023-06-26T12:43:42;92760.16;;;26.62;35.26
81319;BME280;70784;48.420;14.830;2023-06-26T12:46:35;92758.66;;;26.47;38.83
81319;BME280;70784;48.420;14.830;2023-06-26T12:49:20;92756.84;;;28.34;33.77
81319;BME280;70784;48.420;14.830;2023-06-26T12:52:09;92759.06;;;30.41;33.00
81319;BME280;70784;48.420;14.830;2023-06-26T12:54:55;92753.16;;;29.80;30.92
81319;BME280;70784;48.420;14.830;2023-06-26T12:57:40;92760.59;;;28.40;33.03
81319;BME280;70784;48.420;14.830;2023-06-26T13:00:24;92762.13;;;26.22;37.41
81319;BME280;70784;48.420;14.830;2023-06-26T13:03:10;92762.84;;;25.27;41.24
81319;BME280;70784;48.420;14.830;2023-06-26T13:05:54;92763.03;;;24.76;41.20
81319;BME280;70784;48.420;14.830;2023-06-26T13:08:38;92762.03;;;26.72;40.95
81319;BME280;70784;48.420;14.830;2023-06-26T13:11:23;92751.31;;;27.63;37.33
81319;BME280;70784;48.420;14.830;2023-06-26T13:14:07;92751.97;;;29.81;31.70
81319;BME280;70784;48.420;14.830;2023-06-26T13:16:52;92746.28;;;27.09;35.72
81319;BME280;70784;48.420;14.830;2023-06-26T13:19:36;92744.06;;;29.47;31.33
81319;BME280;70784;48.420;14.830;2023-06-26T13:22:21;92731.22;;;29.38;33.81
81319;BME280;70784;48.420;14.830;2023-06-26T13:25:05;92736.22;;;29.06;32.58
81319;BME280;70784;48.420;14.830;2023-06-26T13:27:50;92732.97;;;29.49;32.52
81319;BME280;70784;48.420;14.830;2023-06-26T13:30:35;92728.94;;;26.66;34.59
81319;BME280;70784;48.420;14.830;2023-06-26T13:33:19;92733.13;;;26.67;36.04
81319;BME280;70784;48.420;14.830;2023-06-26T13:36:04;92726.78;;;26.15;36.45
81319;BME280;70784;48.420;14.830;2023-06-26T13:38:49;92734.19;;;29.14;32.12
81319;BME280;70784;48.420;14.830;2023-06-26T13:41:39;92726.28;;;28.39;32.41
81319;BME280;70784;48.420;14.830;2023-06-26T13:44:23;92714.38;;;27.61;33.20
81319;BME280;70784;48.420;14.830;2023-06-26T13:47:08;92713.28;;;28.00;32.96
81319;BME280;70784;48.420;14.830;2023-06-26T13:49:52;92711.34;;;26.93;34.81
81319;BME280;70784;48.420;14.830;2023-06-26T13:52:37;92709.59;;;26.51;35.95
81319;BME280;70784;48.420;14.830;2023-06-26T13:55:21;92704.66;;;27.30;33.69
81319;BME280;70784;48.420;14.830;2023-06-26T13:58:08;92712.91;;;29.87;31.20
81319;BME280;70784;48.420;14.830;2023-06-26T14:00:53;92709.59;;;27.86;32.43
81319;BME280;70784;48.420;14.830;2023-06-26T14:03:38;92709.44;;;31.48;26.70
81319;BME280;70784;48.420;14.830;2023-06-26T14:06:22;92708.38;;;27.43;33.62
81319;BME280;70784;48.420;14.830;2023-06-26T14:09:07;92711.41;;;26.75;33.23
81319;BME280;70784;48.420;14.830;2023-06-26T14:11:52;92713.53;;;28.53;32.00
81319;BME280;70784;48.420;14.830;2023-06-26T14:14:37;92697.41;;;31.73;26.88
81319;BME280;70784;48.420;14.830;2023-06-26T14:17:21;92699.75;;;28.21;33.34
81319;BME280;70784;48.420;14.830;2023-06-26T14:20:10;92709.28;;;26.35;34.65
81319;BME280;70784;48.420;14.830;2023-06-26T14:22:57;92701.22;;;27.33;34.94
81319;BME280;70784;48.420;14.830;2023-06-26T14:25:42;92699.75;;;26.37;34.84
81319;BME280;70784;48.420;14.830;2023-06-26T14:28:26;92701.63;;;26.48;36.90
81319;BME280;70784;48.420;14.830;2023-06-26T14:31:10;92699.56;;;27.53;35.76
81319;BME280;70784;48.420;14.830;2023-06-26T14:33:55;92697.19;;;27.10;38.46